sensor_id;sensor_type;location;lat;lon;timestamp;pressure;altitude;pressure_sealevel;temperature;humidity
30708;BME280;17458;48.958;8.284;2023-07-09T00:01:43;100559.19;;;27.95;51.88
30708;BME280;17458;48.958;8.284;2023-07-09T00:04:27;100554.84;;;27.83;52.42
30708;BME280;17458;48.958;8.284;2023-07-09T00:07:31;100552.94;;;27.90;52.20
30708;BME280;17458;48.958;8.284;2023-07-09T00:10:20;100556.56;;;27.91;52.00
30708;BME280;17458;48.958;8.284;2023-07-09T00:13:04;100560.28;;;27.85;51.98
30708;BME280;17458;48.958;8.284;2023-07-09T00:15:49;100553.03;;;27.84;52.05
30708;BME280;17458;48.958;8.284;2023-07-09T00:18:33;100561.34;;;27.78;52.12
30708;BME280;17458;48.958;8.284;2023-07-09T00:21:20;100548.63;;;27.77;52.36
30708;BME280;17458;48.958;8.284;2023-07-09T00:24:05;100556.81;;;27.77;52.06
30708;BME280;17458;48.958;8.284;2023-07-09T00:26:49;100564.06;;;27.78;52.03
30708;BME280;17458;48.958;8.284;2023-07-09T00:29:34;100567.97;;;26.99;54.61
30708;BME280;17458;48.958;8.284;2023-07-09T00:32:19;100574.06;;;26.44;56.73
30708;BME280;17458;48.958;8.284;2023-07-09T00:35:08;100569.34;;;26.61;56.11
30708;BME280;17458;48.958;8.284;2023-07-09T00:37:52;100571.72;;;26.87;55.03
30708;BME280;17458;48.958;8.284;2023-07-09T00:40:36;100585.31;;;26.90;54.71
30708;BME280;17458;48.958;8.284;2023-07-09T00:43:20;100572.44;;;27.06;54.22
30708;BME280;17458;48.958;8.284;2023-07-09T00:49:09;100572.88;;;27.37;53.53
30708;BME280;17458;48.958;8.284;2023-07-09T00:51:56;100573.44;;;26.97;55.08
30708;BME280;17458;48.958;8.284;2023-07-09T00:54:46;100570.63;;;27.03;54.48
30708;BME280;17458;48.958;8.284;2023-07-09T00:57:30;100576.84;;;27.14;54.06
30708;BME280;17458;48.958;8.284;2023-07-09T01:00:15;100577.69;;;27.20;53.85
30708;BME280;17458;48.958;8.284;2023-07-09T01:03:00;100582.19;;;27.22;53.70
30708;BME280;17458;48.958;8.284;2023-07-09T01:05:48;100583.91;;;27.28;53.70
30708;BME280;17458;48.958;8.284;2023-07-09T01:08:37;100588.44;;;27.30;53.42
30708;BME280;17458;48.958;8.284;2023-07-09T01:11:25;100583.19;;;27.15;53.54
30708;BME280;17458;48.958;8.284;2023-07-09T01:14:11;100589.50;;;27.20;53.53
30708;BME280;17458;48.958;8.284;2023-07-09T01:17:05;100587.97;;;26.96;54.65
30708;BME280;17458;48.958;8.284;2023-07-09T01:19:50;100584.78;;;26.59;57.29
30708;BME280;17458;48.958;8.284;2023-07-09T01:22:34;100589.63;;;26.33;58.37
30708;BME280;17458;48.958;8.284;2023-07-09T01:25:24;100575.91;;;25.30;62.09
30708;BME280;17458;48.958;8.284;2023-07-09T01:28:08;100582.66;;;25.98;59.32
30708;BME280;17458;48.958;8.284;2023-07-09T01:30:52;100575.97;;;26.37;57.79
30708;BME280;17458;48.958;8.284;2023-07-09T01:33:38;100585.63;;;26.66;56.84
30708;BME280;17458;48.958;8.284;2023-07-09T01:36:23;100582.81;;;26.73;56.30
30708;BME280;17458;48.958;8.284;2023-07-09T01:39:08;100576.41;;;26.77;55.85
30708;BME280;17458;48.958;8.284;2023-07-09T01:41:52;100572.75;;;26.80;55.68
30708;BME280;17458;48.958;8.284;2023-07-09T01:44:37;100585.41;;;26.82;55.03
30708;BME280;17458;48.958;8.284;2023-07-09T01:47:22;100585.38;;;26.84;54.87
30708;BME280;17458;48.958;8.284;2023-07-09T01:50:07;100575.50;;;26.77;54.82
30708;BME280;17458;48.958;8.284;2023-07-09T01:52:54;100576.44;;;26.74;54.73
30708;BME280;17458;48.958;8.284;2023-07-09T01:55:39;100572.78;;;26.77;54.50
30708;BME280;17458;48.958;8.284;2023-07-09T01:58:23;100577.38;;;26.72;54.53
30708;BME280;17458;48.958;8.284;2023-07-09T02:01:09;100585.53;;;26.72;54.54
30708;BME280;17458;48.958;8.284;2023-07-09T02:03:53;100591.00;;;26.70;54.65
30708;BME280;17458;48.958;8.284;2023-07-09T02:06:37;100582.91;;;26.66;54.87
30708;BME280;17458;48.958;8.284;2023-07-09T02:09:21;100588.41;;;26.60;55.08
30708;BME280;17458;48.958;8.284;2023-07-09T02:12:05;100577.63;;;26.51;55.39
30708;BME280;17458;48.958;8.284;2023-07-09T02:14:49;100582.16;;;26.52;55.65
30708;BME280;17458;48.958;8.284;2023-07-09T02:17:33;100591.34;;;26.40;56.33
30708;BME280;17458;48.958;8.284;2023-07-09T02:20:17;100576.94;;;26.26;56.60
30708;BME280;17458;48.958;8.284;2023-07-09T02:23:03;100583.16;;;26.43;56.03
30708;BME280;17458;48.958;8.284;2023-07-09T02:25:48;100583.91;;;26.56;55.73
30708;BME280;17458;48.958;8.284;2023-07-09T02:28:32;100584.91;;;26.50;55.55
30708;BME280;17458;48.958;8.284;2023-07-09T02:31:17;100587.69;;;26.44;55.82
30708;BME280;17458;48.958;8.284;2023-07-09T02:34:03;100593.16;;;26.41;55.74
30708;BME280;17458;48.958;8.284;2023-07-09T02:36:46;100591.72;;;26.00;58.61
30708;BME280;17458;48.958;8.284;2023-07-09T02:39:31;100604.28;;;26.13;57.35
30708;BME280;17458;48.958;8.284;2023-07-09T02:42:17;100597.84;;;26.28;56.67
30708;BME280;17458;48.958;8.284;2023-07-09T02:45:02;100601.34;;;26.39;56.39
30708;BME280;17458;48.958;8.284;2023-07-09T02:47:49;100599.56;;;26.38;56.17
30708;BME280;17458;48.958;8.284;2023-07-09T02:50:33;100601.34;;;26.39;56.09
30708;BME280;17458;48.958;8.284;2023-07-09T02:53:17;100592.38;;;26.31;56.15
30708;BME280;17458;48.958;8.284;2023-07-09T02:56:01;100597.78;;;26.34;56.05
30708;BME280;17458;48.958;8.284;2023-07-09T02:58:45;100601.44;;;26.30;56.12
30708;BME280;17458;48.958;8.284;2023-07-09T03:01:30;100600.53;;;26.25;56.13
30708;BME280;17458;48.958;8.284;2023-07-09T03:04:16;100594.31;;;26.12;56.63
30708;BME280;17458;48.958;8.284;2023-07-09T03:07:00;100597.16;;;25.99;56.94
30708;BME280;17458;48.958;8.284;2023-07-09T03:09:44;100598.19;;;25.89;57.30
30708;BME280;17458;48.958;8.284;2023-07-09T03:12:28;100602.72;;;25.88;57.55
30708;BME280;17458;48.958;8.284;2023-07-09T03:15:12;100601.78;;;25.92;57.17
30708;BME280;17458;48.958;8.284;2023-07-09T03:17:56;100605.34;;;25.99;57.09
30708;BME280;17458;48.958;8.284;2023-07-09T03:20:40;100606.22;;;26.01;56.92
30708;BME280;17458;48.958;8.284;2023-07-09T03:23:24;100604.44;;;25.98;57.19
30708;BME280;17458;48.958;8.284;2023-07-09T03:26:09;100599.97;;;25.94;57.01
30708;BME280;17458;48.958;8.284;2023-07-09T03:28:53;100599.03;;;25.95;56.72
30708;BME280;17458;48.958;8.284;2023-07-09T03:31:37;100601.69;;;26.00;56.84
30708;BME280;17458;48.958;8.284;2023-07-09T03:34:21;100604.41;;;26.00;56.75
30708;BME280;17458;48.958;8.284;2023-07-09T03:37:05;100611.75;;;25.92;57.12
30708;BME280;17458;48.958;8.284;2023-07-09T03:39:49;100613.63;;;25.85;57.36
30708;BME280;17458;48.958;8.284;2023-07-09T03:42:33;100619.19;;;25.70;57.53
30708;BME280;17458;48.958;8.284;2023-07-09T03:45:17;100624.72;;;25.52;57.82
30708;BME280;17458;48.958;8.284;2023-07-09T03:48:02;100633.81;;;25.49;58.08
30708;BME280;17458;48.958;8.284;2023-07-09T03:50:47;100633.75;;;25.61;57.47
30708;BME280;17458;48.958;8.284;2023-07-09T03:53:31;100646.38;;;25.71;57.01
30708;BME280;17458;48.958;8.284;2023-07-09T03:56:15;100644.50;;;25.80;56.62
30708;BME280;17458;48.958;8.284;2023-07-09T03:58:59;100630.94;;;25.75;56.82
30708;BME280;17458;48.958;8.284;2023-07-09T04:01:43;100640.88;;;25.81;56.76
30708;BME280;17458;48.958;8.284;2023-07-09T04:04:30;100657.59;;;25.03;60.53
30708;BME280;17458;48.958;8.284;2023-07-09T04:07:14;100657.47;;;25.29;59.11
30708;BME280;17458;48.958;8.284;2023-07-09T04:09:58;100654.66;;;25.50;58.53
30708;BME280;17458;48.958;8.284;2023-07-09T04:12:43;100660.94;;;25.66;58.15
30708;BME280;17458;48.958;8.284;2023-07-09T04:15:27;100651.88;;;25.67;58.04
30708;BME280;17458;48.958;8.284;2023-07-09T04:18:11;100656.47;;;25.50;58.65
30708;BME280;17458;48.958;8.284;2023-07-09T04:20:55;100667.28;;;25.65;58.04
30708;BME280;17458;48.958;8.284;2023-07-09T04:23:39;100664.50;;;25.75;57.78
30708;BME280;17458;48.958;8.284;2023-07-09T04:26:23;100662.56;;;25.91;57.41
30708;BME280;17458;48.958;8.284;2023-07-09T04:29:09;100665.09;;;26.11;57.10
30708;BME280;17458;48.958;8.284;2023-07-09T04:31:53;100664.16;;;26.18;57.39
30708;BME280;17458;48.958;8.284;2023-07-09T04:34:37;100667.66;;;26.38;56.74
30708;BME280;17458;48.958;8.284;2023-07-09T04:37:22;100672.69;;;26.76;56.77
30708;BME280;17458;48.958;8.284;2023-07-09T04:40:08;100668.88;;;26.91;56.01
30708;BME280;17458;48.958;8.284;2023-07-09T04:42:54;100677.66;;;27.19;56.05
30708;BME280;17458;48.958;8.284;2023-07-09T04:45:38;100671.81;;;26.73;56.75
30708;BME280;17458;48.958;8.284;2023-07-09T04:48:22;100668.78;;;27.02;56.64
30708;BME280;17458;48.958;8.284;2023-07-09T04:51:06;100680.41;;;27.17;56.61
30708;BME280;17458;48.958;8.284;2023-07-09T04:53:51;100684.44;;;27.55;55.29
30708;BME280;17458;48.958;8.284;2023-07-09T04:56:35;100684.97;;;28.40;52.83
30708;BME280;17458;48.958;8.284;2023-07-09T04:59:21;100688.56;;;28.43;53.55
30708;BME280;17458;48.958;8.284;2023-07-09T05:02:06;100690.25;;;28.50;52.60
30708;BME280;17458;48.958;8.284;2023-07-09T05:04:50;100692.25;;;28.91;51.85
30708;BME280;17458;48.958;8.284;2023-07-09T05:07:34;100693.03;;;28.98;51.47
30708;BME280;17458;48.958;8.284;2023-07-09T05:10:18;100689.31;;;29.01;51.46
30708;BME280;17458;48.958;8.284;2023-07-09T05:13:02;100688.47;;;28.97;51.80
30708;BME280;17458;48.958;8.284;2023-07-09T05:15:46;100691.38;;;29.76;49.32
30708;BME280;17458;48.958;8.284;2023-07-09T05:18:30;100688.47;;;28.97;50.69
30708;BME280;17458;48.958;8.284;2023-07-09T05:21:14;100694.94;;;28.93;52.41
30708;BME280;17458;48.958;8.284;2023-07-09T05:23:58;100699.31;;;29.88;48.89
30708;BME280;17458;48.958;8.284;2023-07-09T05:26:42;100693.88;;;30.23;47.76
30708;BME280;17458;48.958;8.284;2023-07-09T05:29:26;100700.09;;;30.67;45.78
30708;BME280;17458;48.958;8.284;2023-07-09T05:32:10;100687.13;;;30.74;46.27
30708;BME280;17458;48.958;8.284;2023-07-09T05:34:54;100690.28;;;30.58;45.07
30708;BME280;17458;48.958;8.284;2023-07-09T05:37:38;100683.91;;;30.21;46.23
30708;BME280;17458;48.958;8.284;2023-07-09T05:40:22;100690.41;;;30.52;46.02
30708;BME280;17458;48.958;8.284;2023-07-09T05:43:06;100698.72;;;31.47;44.26
30708;BME280;17458;48.958;8.284;2023-07-09T05:45:50;100691.06;;;31.87;42.83
30708;BME280;17458;48.958;8.284;2023-07-09T05:48:34;100707.19;;;32.27;42.07
30708;BME280;17458;48.958;8.284;2023-07-09T05:51:18;100689.16;;;30.98;44.53
30708;BME280;17458;48.958;8.284;2023-07-09T05:54:02;100684.88;;;31.20;43.24
30708;BME280;17458;48.958;8.284;2023-07-09T05:56:46;100697.75;;;30.50;45.44
30708;BME280;17458;48.958;8.284;2023-07-09T05:59:30;100686.41;;;29.91;46.39
30708;BME280;17458;48.958;8.284;2023-07-09T06:02:16;100702.81;;;31.01;45.22
30708;BME280;17458;48.958;8.284;2023-07-09T06:05:01;100693.19;;;30.85;45.08
30708;BME280;17458;48.958;8.284;2023-07-09T06:07:46;100703.63;;;30.72;43.67
30708;BME280;17458;48.958;8.284;2023-07-09T06:10:31;100701.41;;;30.86;45.11
30708;BME280;17458;48.958;8.284;2023-07-09T06:13:14;100701.88;;;31.02;44.49
30708;BME280;17458;48.958;8.284;2023-07-09T06:15:59;100695.81;;;30.18;44.54
30708;BME280;17458;48.958;8.284;2023-07-09T06:18:43;100698.00;;;30.04;44.20
30708;BME280;17458;48.958;8.284;2023-07-09T06:21:27;100695.28;;;30.04;46.78
30708;BME280;17458;48.958;8.284;2023-07-09T06:24:12;100689.66;;;30.10;44.54
30708;BME280;17458;48.958;8.284;2023-07-09T06:26:56;100686.22;;;30.02;44.20
30708;BME280;17458;48.958;8.284;2023-07-09T06:29:40;100692.13;;;30.21;44.74
30708;BME280;17458;48.958;8.284;2023-07-09T06:32:24;100687.59;;;30.18;43.86
30708;BME280;17458;48.958;8.284;2023-07-09T06:35:09;100688.91;;;30.04;43.29
30708;BME280;17458;48.958;8.284;2023-07-09T06:37:53;100686.22;;;30.38;43.83
30708;BME280;17458;48.958;8.284;2023-07-09T06:40:37;100682.59;;;30.36;43.71
30708;BME280;17458;48.958;8.284;2023-07-09T06:43:21;100686.72;;;30.53;43.22
30708;BME280;17458;48.958;8.284;2023-07-09T06:46:10;100694.69;;;30.28;44.60
30708;BME280;17458;48.958;8.284;2023-07-09T06:48:55;100698.22;;;30.69;44.55
30708;BME280;17458;48.958;8.284;2023-07-09T06:51:39;100710.53;;;30.87;44.11
30708;BME280;17458;48.958;8.284;2023-07-09T06:54:25;100699.00;;;31.05;42.47
30708;BME280;17458;48.958;8.284;2023-07-09T06:57:08;100704.50;;;31.05;43.38
30708;BME280;17458;48.958;8.284;2023-07-09T06:59:53;100701.34;;;31.20;43.02
30708;BME280;17458;48.958;8.284;2023-07-09T07:02:36;100699.53;;;31.19;42.94
30708;BME280;17458;48.958;8.284;2023-07-09T07:05:20;100701.88;;;31.02;44.81
30708;BME280;17458;48.958;8.284;2023-07-09T07:08:04;100700.25;;;31.27;42.68
30708;BME280;17458;48.958;8.284;2023-07-09T07:10:55;100697.47;;;31.58;40.70
30708;BME280;17458;48.958;8.284;2023-07-09T07:13:45;100706.31;;;31.69;42.32
30708;BME280;17458;48.958;8.284;2023-07-09T07:16:32;100703.91;;;31.57;44.28
30708;BME280;17458;48.958;8.284;2023-07-09T07:19:16;100692.72;;;31.65;43.38
30708;BME280;17458;48.958;8.284;2023-07-09T07:22:00;100697.59;;;31.85;44.43
30708;BME280;17458;48.958;8.284;2023-07-09T07:24:43;100690.28;;;31.84;42.18
30708;BME280;17458;48.958;8.284;2023-07-09T07:27:29;100690.53;;;32.04;40.98
30708;BME280;17458;48.958;8.284;2023-07-09T07:30:13;100696.63;;;31.56;41.38
30708;BME280;17458;48.958;8.284;2023-07-09T07:32:58;100688.38;;;31.56;43.34
30708;BME280;17458;48.958;8.284;2023-07-09T07:35:42;100685.94;;;31.16;44.08
30708;BME280;17458;48.958;8.284;2023-07-09T07:38:26;100695.44;;;31.94;42.23
30708;BME280;17458;48.958;8.284;2023-07-09T07:41:10;100690.81;;;32.24;41.60
30708;BME280;17458;48.958;8.284;2023-07-09T07:43:54;100694.06;;;31.80;41.79
30708;BME280;17458;48.958;8.284;2023-07-09T07:46:38;100693.81;;;32.43;41.53
30708;BME280;17458;48.958;8.284;2023-07-09T07:49:22;100688.09;;;32.49;40.69
30708;BME280;17458;48.958;8.284;2023-07-09T07:52:07;100687.53;;;32.12;41.35
30708;BME280;17458;48.958;8.284;2023-07-09T07:54:51;100686.25;;;32.23;41.39
30708;BME280;17458;48.958;8.284;2023-07-09T07:57:36;100687.38;;;32.16;41.32
30708;BME280;17458;48.958;8.284;2023-07-09T08:00:20;100686.69;;;32.37;41.75
30708;BME280;17458;48.958;8.284;2023-07-09T08:03:04;100675.75;;;31.80;42.89
30708;BME280;17458;48.958;8.284;2023-07-09T08:05:50;100685.22;;;32.27;42.03
30708;BME280;17458;48.958;8.284;2023-07-09T08:08:34;100677.41;;;32.66;41.50
30708;BME280;17458;48.958;8.284;2023-07-09T08:11:18;100674.47;;;32.71;41.27
30708;BME280;17458;48.958;8.284;2023-07-09T08:14:02;100667.91;;;32.24;42.21
30708;BME280;17458;48.958;8.284;2023-07-09T08:16:46;100670.41;;;32.84;40.89
30708;BME280;17458;48.958;8.284;2023-07-09T08:19:32;100668.91;;;32.99;41.18
30708;BME280;17458;48.958;8.284;2023-07-09T08:22:17;100665.72;;;33.11;40.70
30708;BME280;17458;48.958;8.284;2023-07-09T08:25:01;100666.16;;;32.74;40.49
30708;BME280;17458;48.958;8.284;2023-07-09T08:27:45;100676.00;;;33.06;40.80
30708;BME280;17458;48.958;8.284;2023-07-09T08:30:29;100658.09;;;33.18;41.11
30708;BME280;17458;48.958;8.284;2023-07-09T08:33:13;100670.69;;;33.00;40.38
30708;BME280;17458;48.958;8.284;2023-07-09T08:35:57;100664.84;;;33.57;39.81
30708;BME280;17458;48.958;8.284;2023-07-09T08:38:41;100670.03;;;33.88;39.31
30708;BME280;17458;48.958;8.284;2023-07-09T08:44:43;100663.38;;;33.49;39.46
30708;BME280;17458;48.958;8.284;2023-07-09T08:50:54;100673.25;;;33.99;39.09
30708;BME280;17458;48.958;8.284;2023-07-09T08:53:46;100674.16;;;34.22;39.51
30708;BME280;17458;48.958;8.284;2023-07-09T08:56:33;100669.81;;;33.94;39.64
30708;BME280;17458;48.958;8.284;2023-07-09T08:59:17;100666.47;;;34.08;39.87
30708;BME280;17458;48.958;8.284;2023-07-09T09:02:04;100679.19;;;34.34;40.02
30708;BME280;17458;48.958;8.284;2023-07-09T09:04:57;100677.03;;;34.19;40.64
30708;BME280;17458;48.958;8.284;2023-07-09T09:07:43;100668.69;;;33.98;40.37
30708;BME280;17458;48.958;8.284;2023-07-09T09:10:48;100681.34;;;34.68;39.06
30708;BME280;17458;48.958;8.284;2023-07-09T09:13:38;100680.63;;;34.64;40.38
30708;BME280;17458;48.958;8.284;2023-07-09T09:16:30;100680.16;;;34.33;39.57
30708;BME280;17458;48.958;8.284;2023-07-09T09:19:29;100667.75;;;34.21;39.39
30708;BME280;17458;48.958;8.284;2023-07-09T09:22:23;100666.59;;;34.69;37.15
30708;BME280;17458;48.958;8.284;2023-07-09T09:28:02;100671.03;;;34.73;38.50
30708;BME280;17458;48.958;8.284;2023-07-09T09:30:46;100671.34;;;35.07;35.32
30708;BME280;17458;48.958;8.284;2023-07-09T09:33:40;100671.44;;;35.45;35.91
30708;BME280;17458;48.958;8.284;2023-07-09T09:36:26;100663.03;;;35.28;35.14
30708;BME280;17458;48.958;8.284;2023-07-09T09:39:10;100660.28;;;35.07;35.21
30708;BME280;17458;48.958;8.284;2023-07-09T09:41:57;100654.19;;;34.80;35.10
30708;BME280;17458;48.958;8.284;2023-07-09T09:44:45;100654.28;;;34.98;34.83
30708;BME280;17458;48.958;8.284;2023-07-09T09:47:29;100654.53;;;35.32;34.72
30708;BME280;17458;48.958;8.284;2023-07-09T09:50:18;100649.03;;;35.32;34.19
30708;BME280;17458;48.958;8.284;2023-07-09T09:53:07;100650.03;;;34.91;35.79
30708;BME280;17458;48.958;8.284;2023-07-09T09:55:53;100647.22;;;35.11;35.33
30708;BME280;17458;48.958;8.284;2023-07-09T09:58:40;100639.31;;;34.83;36.12
30708;BME280;17458;48.958;8.284;2023-07-09T10:01:28;100643.72;;;34.87;35.55
30708;BME280;17458;48.958;8.284;2023-07-09T10:04:17;100635.22;;;35.32;36.45
30708;BME280;17458;48.958;8.284;2023-07-09T10:07:06;100617.97;;;35.65;35.47
30708;BME280;17458;48.958;8.284;2023-07-09T10:09:53;100620.09;;;35.78;35.24
30708;BME280;17458;48.958;8.284;2023-07-09T10:12:50;100621.28;;;36.09;34.55
30708;BME280;17458;48.958;8.284;2023-07-09T10:15:48;100612.50;;;36.01;35.78
30708;BME280;17458;48.958;8.284;2023-07-09T10:21:30;100608.41;;;35.72;35.51
30708;BME280;17458;48.958;8.284;2023-07-09T10:27:22;100596.09;;;36.15;35.39
30708;BME280;17458;48.958;8.284;2023-07-09T10:30:19;100592.81;;;36.77;34.41
30708;BME280;17458;48.958;8.284;2023-07-09T10:33:53;100589.41;;;36.72;33.57
30708;BME280;17458;48.958;8.284;2023-07-09T10:39:13;100592.13;;;36.20;34.43
30708;BME280;17458;48.958;8.284;2023-07-09T10:42:01;100595.56;;;36.43;33.24
30708;BME280;17458;48.958;8.284;2023-07-09T10:44:51;100595.97;;;36.87;34.36
30708;BME280;17458;48.958;8.284;2023-07-09T10:47:44;100589.13;;;36.42;34.20
30708;BME280;17458;48.958;8.284;2023-07-09T10:50:34;100583.69;;;36.41;34.54
30708;BME280;17458;48.958;8.284;2023-07-09T10:53:44;100582.72;;;36.59;33.69
30708;BME280;17458;48.958;8.284;2023-07-09T10:56:31;100579.34;;;36.70;33.67
30708;BME280;17458;48.958;8.284;2023-07-09T10:59:27;100581.28;;;37.02;33.92
30708;BME280;17458;48.958;8.284;2023-07-09T11:02:19;100579.06;;;36.76;33.97
30708;BME280;17458;48.958;8.284;2023-07-09T11:05:06;100576.19;;;36.43;33.67
30708;BME280;17458;48.958;8.284;2023-07-09T11:08:06;100575.38;;;36.58;35.01
30708;BME280;17458;48.958;8.284;2023-07-09T11:10:56;100564.97;;;36.63;34.34
30708;BME280;17458;48.958;8.284;2023-07-09T11:13:47;100560.91;;;37.03;33.31
30708;BME280;17458;48.958;8.284;2023-07-09T11:16:38;100565.72;;;37.00;33.63
30708;BME280;17458;48.958;8.284;2023-07-09T11:19:22;100555.78;;;36.96;33.91
30708;BME280;17458;48.958;8.284;2023-07-09T11:22:36;100559.47;;;37.60;32.95
30708;BME280;17458;48.958;8.284;2023-07-09T11:25:41;100558.06;;;37.05;33.02
30708;BME280;17458;48.958;8.284;2023-07-09T11:28:33;100547.66;;;37.25;32.62
30708;BME280;17458;48.958;8.284;2023-07-09T11:31:25;100549.56;;;37.08;33.01
30708;BME280;17458;48.958;8.284;2023-07-09T11:37:02;100549.63;;;37.39;32.02
30708;BME280;17458;48.958;8.284;2023-07-09T11:39:50;100555.25;;;37.38;32.41
30708;BME280;17458;48.958;8.284;2023-07-09T11:42:47;100535.44;;;37.45;31.08
30708;BME280;17458;48.958;8.284;2023-07-09T11:45:33;100529.84;;;37.14;31.04
30708;BME280;17458;48.958;8.284;2023-07-09T11:48:29;100534.44;;;37.31;31.33
30708;BME280;17458;48.958;8.284;2023-07-09T11:51:26;100539.72;;;37.82;31.36
30708;BME280;17458;48.958;8.284;2023-07-09T11:54:19;100537.38;;;38.36;31.19
30708;BME280;17458;48.958;8.284;2023-07-09T11:57:10;100535.66;;;38.34;31.12
30708;BME280;17458;48.958;8.284;2023-07-09T11:59:59;100529.81;;;38.24;30.22
30708;BME280;17458;48.958;8.284;2023-07-09T12:02:43;100537.56;;;37.87;28.93
30708;BME280;17458;48.958;8.284;2023-07-09T12:05:29;100526.09;;;38.09;29.56
30708;BME280;17458;48.958;8.284;2023-07-09T12:08:14;100523.00;;;38.29;29.19
30708;BME280;17458;48.958;8.284;2023-07-09T12:10:59;100524.09;;;38.71;29.30
30708;BME280;17458;48.958;8.284;2023-07-09T12:13:44;100522.44;;;38.53;28.40
30708;BME280;17458;48.958;8.284;2023-07-09T12:16:31;100527.34;;;38.63;28.47
30708;BME280;17458;48.958;8.284;2023-07-09T12:19:18;100506.31;;;38.00;29.17
30708;BME280;17458;48.958;8.284;2023-07-09T12:22:08;100505.78;;;38.53;30.08
30708;BME280;17458;48.958;8.284;2023-07-09T12:24:53;100497.88;;;38.61;29.26
30708;BME280;17458;48.958;8.284;2023-07-09T12:27:41;100495.47;;;38.41;28.65
30708;BME280;17458;48.958;8.284;2023-07-09T12:30:25;100490.03;;;38.09;28.56
30708;BME280;17458;48.958;8.284;2023-07-09T12:33:23;100489.97;;;37.95;28.79
30708;BME280;17458;48.958;8.284;2023-07-09T12:36:09;100487.03;;;38.28;28.71
30708;BME280;17458;48.958;8.284;2023-07-09T12:39:01;100482.84;;;38.35;28.68
30708;BME280;17458;48.958;8.284;2023-07-09T12:41:47;100483.25;;;38.59;28.89
30708;BME280;17458;48.958;8.284;2023-07-09T12:44:35;100477.09;;;38.68;27.90
30708;BME280;17458;48.958;8.284;2023-07-09T12:47:20;100473.69;;;38.77;29.02
30708;BME280;17458;48.958;8.284;2023-07-09T12:50:31;100464.84;;;39.27;28.98
30708;BME280;17458;48.958;8.284;2023-07-09T12:53:18;100469.56;;;39.40;27.44
30708;BME280;17458;48.958;8.284;2023-07-09T12:56:02;100457.38;;;38.58;28.29
30708;BME280;17458;48.958;8.284;2023-07-09T12:58:46;100455.16;;;38.78;27.76
30708;BME280;17458;48.958;8.284;2023-07-09T13:01:34;100438.28;;;39.09;26.65
30708;BME280;17458;48.958;8.284;2023-07-09T13:04:18;100452.72;;;39.43;27.50
30708;BME280;17458;48.958;8.284;2023-07-09T13:07:03;100455.81;;;39.24;25.93
30708;BME280;17458;48.958;8.284;2023-07-09T13:09:52;100443.06;;;39.34;27.19
30708;BME280;17458;48.958;8.284;2023-07-09T13:12:38;100447.81;;;38.62;26.39
30708;BME280;17458;48.958;8.284;2023-07-09T13:18:15;100440.28;;;39.07;27.31
30708;BME280;17458;48.958;8.284;2023-07-09T13:21:00;100441.97;;;38.81;27.08
30708;BME280;17458;48.958;8.284;2023-07-09T13:23:47;100441.44;;;38.89;26.63
30708;BME280;17458;48.958;8.284;2023-07-09T13:26:32;100443.38;;;38.88;26.58
30708;BME280;17458;48.958;8.284;2023-07-09T13:29:18;100442.47;;;39.16;26.60
30708;BME280;17458;48.958;8.284;2023-07-09T13:32:08;100440.16;;;38.94;26.71
30708;BME280;17458;48.958;8.284;2023-07-09T13:34:53;100440.69;;;38.73;26.43
30708;BME280;17458;48.958;8.284;2023-07-09T13:37:37;100432.81;;;38.51;26.84
30708;BME280;17458;48.958;8.284;2023-07-09T13:40:21;100435.41;;;38.40;26.33
30708;BME280;17458;48.958;8.284;2023-07-09T13:43:13;100434.53;;;38.82;25.47
30708;BME280;17458;48.958;8.284;2023-07-09T13:45:59;100431.16;;;38.77;27.18
30708;BME280;17458;48.958;8.284;2023-07-09T13:48:44;100427.09;;;38.82;26.14
30708;BME280;17458;48.958;8.284;2023-07-09T13:51:28;100429.91;;;39.23;25.76
30708;BME280;17458;48.958;8.284;2023-07-09T13:57:03;100418.94;;;39.49;28.07
30708;BME280;17458;48.958;8.284;2023-07-09T13:59:48;100423.72;;;39.32;28.66
30708;BME280;17458;48.958;8.284;2023-07-09T14:02:32;100420.97;;;39.59;27.11
30708;BME280;17458;48.958;8.284;2023-07-09T14:05:16;100414.91;;;39.80;26.62
30708;BME280;17458;48.958;8.284;2023-07-09T14:08:00;100402.28;;;39.34;27.47
30708;BME280;17458;48.958;8.284;2023-07-09T14:10:44;100412.09;;;39.67;26.61
30708;BME280;17458;48.958;8.284;2023-07-09T14:13:30;100398.81;;;39.85;25.91
30708;BME280;17458;48.958;8.284;2023-07-09T14:16:27;100395.94;;;39.59;26.70
30708;BME280;17458;48.958;8.284;2023-07-09T14:19:21;100396.41;;;39.66;25.44
30708;BME280;17458;48.958;8.284;2023-07-09T14:22:23;100391.66;;;39.81;25.81
30708;BME280;17458;48.958;8.284;2023-07-09T14:25:17;100391.63;;;39.95;25.80
30708;BME280;17458;48.958;8.284;2023-07-09T14:28:07;100404.53;;;40.21;25.49
30708;BME280;17458;48.958;8.284;2023-07-09T14:30:52;100393.41;;;39.56;26.76
30708;BME280;17458;48.958;8.284;2023-07-09T14:33:36;100406.75;;;40.03;24.90
30708;BME280;17458;48.958;8.284;2023-07-09T14:36:20;100400.69;;;39.84;26.24
30708;BME280;17458;48.958;8.284;2023-07-09T14:39:09;100402.75;;;40.20;25.99
30708;BME280;17458;48.958;8.284;2023-07-09T14:41:54;100409.91;;;39.72;25.49
30708;BME280;17458;48.958;8.284;2023-07-09T14:44:39;100399.72;;;39.31;26.10
30708;BME280;17458;48.958;8.284;2023-07-09T14:47:23;100412.34;;;39.77;26.17
30708;BME280;17458;48.958;8.284;2023-07-09T14:50:08;100411.00;;;39.69;24.96
30708;BME280;17458;48.958;8.284;2023-07-09T14:52:53;100404.44;;;39.71;25.45
30708;BME280;17458;48.958;8.284;2023-07-09T14:55:37;100409.41;;;39.53;26.25
30708;BME280;17458;48.958;8.284;2023-07-09T14:58:22;100409.41;;;38.97;26.71
30708;BME280;17458;48.958;8.284;2023-07-09T15:01:12;100412.59;;;39.06;26.87